Time,TemperatureF,DewpointF,PressureIn,WindDirection,WindDirectionDegrees,WindSpeedMPH,WindSpeedGustMPH,Humidity,HourlyPrecipIn,Conditions,Clouds,dailyrainin,SoftwareType,DateUTC
2013-02-28 00:01:00,48.2,46.8,30.22,West,270,11.0,17.0,95,0.00,,,0.07,meteohub,2013-02-28 08:01:00,
2013-02-28 00:06:00,48.2,46.8,30.22,West,270,12.0,17.0,95,0.00,,,0.00,meteohub,2013-02-28 08:06:00,
2013-02-28 00:11:00,48.4,46.8,30.22,West,270,11.0,17.0,94,0.00,,,0.00,meteohub,2013-02-28 08:11:00,
2013-02-28 00:16:00,48.4,46.8,30.22,NW,315,15.0,15.0,94,0.00,,,0.00,meteohub,2013-02-28 08:16:00,
2013-02-28 00:21:00,48.4,46.8,30.22,West,270,8.0,15.0,94,0.00,,,0.00,meteohub,2013-02-28 08:21:00,
2013-02-28 00:26:00,48.4,46.8,30.22,NW,315,13.0,15.0,94,0.00,,,0.00,meteohub,2013-02-28 08:26:00,
2013-02-28 00:31:00,48.4,46.8,30.22,West,270,11.0,15.0,94,0.00,,,0.00,meteohub,2013-02-28 08:31:00,
2013-02-28 00:36:00,48.6,46.9,30.22,West,270,12.0,13.0,94,0.00,,,0.00,meteohub,2013-02-28 08:36:00,
2013-02-28 00:41:00,48.7,47.1,30.22,NW,315,11.0,13.0,94,0.00,,,0.00,meteohub,2013-02-28 08:41:00,
2013-02-28 00:46:00,48.7,47.1,30.22,West,270,11.0,13.0,94,0.00,,,0.00,meteohub,2013-02-28 08:46:00,
2013-02-28 00:51:00,48.7,47.1,30.22,NW,315,10.0,13.0,94,0.00,,,0.00,meteohub,2013-02-28 08:51:00,
2013-02-28 00:56:00,48.7,47.1,30.22,NW,315,9.0,12.0,94,0.00,,,0.00,meteohub,2013-02-28 08:56:00,
2013-02-28 01:01:00,48.7,47.1,30.22,West,270,12.0,12.0,94,0.00,,,0.00,meteohub,2013-02-28 09:01:00,
2013-02-28 01:06:00,48.9,47.3,30.22,NW,315,8.0,12.0,94,0.00,,,0.00,meteohub,2013-02-28 09:06:00,
2013-02-28 01:11:00,49.1,47.1,30.22,NW,315,11.0,12.0,93,0.00,,,0.00,meteohub,2013-02-28 09:11:00,
2013-02-28 01:16:00,49.1,47.1,30.21,NW,315,7.0,12.0,93,0.00,,,0.00,meteohub,2013-02-28 09:16:00,
2013-02-28 01:21:00,49.1,47.1,30.21,NW,315,5.0,11.0,93,0.00,,,0.00,meteohub,2013-02-28 09:21:00,
2013-02-28 01:26:00,49.1,47.5,30.21,West,270,7.0,11.0,94,0.00,,,0.00,meteohub,2013-02-28 09:26:00,
2013-02-28 01:31:00,49.3,47.3,30.21,NW,315,8.0,9.0,93,0.00,,,0.00,meteohub,2013-02-28 09:31:00,
2013-02-28 01:36:00,49.5,47.5,30.22,North,0,8.0,11.0,93,0.00,,,0.00,meteohub,2013-02-28 09:36:00,
2013-02-28 01:41:00,49.5,47.5,30.22,NW,315,7.0,14.0,93,0.00,,,0.00,meteohub,2013-02-28 09:41:00,
2013-02-28 01:46:00,49.6,47.5,30.22,NW,315,9.0,14.0,92,0.00,,,0.00,meteohub,2013-02-28 09:46:00,
2013-02-28 01:51:00,49.6,47.5,30.21,West,270,8.0,14.0,92,0.00,,,0.00,meteohub,2013-02-28 09:51:00,
2013-02-28 01:56:00,49.6,47.5,30.21,NW,315,8.0,10.0,92,0.00,,,0.00,meteohub,2013-02-28 09:56:00,
2013-02-28 02:01:00,49.5,47.5,30.22,West,270,5.0,10.0,93,0.00,,,0.00,meteohub,2013-02-28 10:01:00,
2013-02-28 02:06:00,49.3,47.3,30.21,West,270,8.0,10.0,93,0.00,,,0.00,meteohub,2013-02-28 10:06:00,
2013-02-28 02:11:00,49.1,47.1,30.22,NW,315,10.0,11.0,93,0.00,,,0.00,meteohub,2013-02-28 10:11:00,
2013-02-28 02:16:00,49.3,47.3,30.22,NW,315,11.0,11.0,93,0.00,,,0.00,meteohub,2013-02-28 10:16:00,
2013-02-28 02:21:00,49.3,47.3,30.21,NW,315,8.0,11.0,93,0.00,,,0.00,meteohub,2013-02-28 10:21:00,
2013-02-28 02:26:00,49.3,47.3,30.22,NW,315,9.0,15.0,93,0.00,,,0.00,meteohub,2013-02-28 10:26:00,
2013-02-28 02:31:00,49.3,47.3,30.22,West,270,12.0,15.0,93,0.00,,,0.00,meteohub,2013-02-28 10:31:00,
2013-02-28 02:36:00,49.3,47.7,30.21,NW,315,8.0,15.0,94,0.00,,,0.00,meteohub,2013-02-28 10:36:00,
2013-02-28 02:41:00,49.1,47.5,30.21,West,270,8.0,15.0,94,0.00,,,0.00,meteohub,2013-02-28 10:41:00,
2013-02-28 02:46:00,49.1,47.5,30.21,West,270,5.0,15.0,94,0.00,,,0.00,meteohub,2013-02-28 10:46:00,
2013-02-28 02:51:00,48.9,47.3,30.22,West,270,8.0,15.0,94,0.00,,,0.00,meteohub,2013-02-28 10:51:00,
2013-02-28 02:56:00,49.1,47.5,30.22,NW,315,8.0,11.0,94,0.00,,,0.00,meteohub,2013-02-28 10:56:00,
2013-02-28 03:01:00,49.1,47.5,30.22,West,270,8.0,11.0,94,0.00,,,0.00,meteohub,2013-02-28 11:01:00,
2013-02-28 03:06:00,49.1,47.5,30.22,NW,315,7.0,11.0,94,0.00,,,0.00,meteohub,2013-02-28 11:06:00,
2013-02-28 03:11:00,49.1,47.5,30.22,NW,315,8.0,11.0,94,0.00,,,0.00,meteohub,2013-02-28 11:11:00,
2013-02-28 03:17:00,49.1,47.7,30.22,North,0,5.0,9.0,95,0.00,,,0.00,meteohub,2013-02-28 11:17:00,
2013-02-28 03:22:00,49.1,47.7,30.22,West,270,5.0,9.0,95,0.00,,,0.00,meteohub,2013-02-28 11:22:00,
2013-02-28 03:27:00,49.1,47.7,30.22,West,270,5.0,9.0,95,0.00,,,0.00,meteohub,2013-02-28 11:27:00,
2013-02-28 03:32:00,49.3,47.8,30.22,West,270,5.0,7.0,95,0.00,,,0.00,meteohub,2013-02-28 11:32:00,
2013-02-28 03:37:00,49.3,47.8,30.22,NW,315,7.0,9.0,95,0.00,,,0.00,meteohub,2013-02-28 11:37:00,
2013-02-28 03:42:00,49.3,47.8,30.23,West,270,5.0,9.0,95,0.00,,,0.00,meteohub,2013-02-28 11:42:00,
2013-02-28 03:47:00,49.5,48.0,30.22,NW,315,4.0,8.0,95,0.00,,,0.00,meteohub,2013-02-28 11:47:00,
2013-02-28 03:52:00,49.8,48.2,30.22,NW,315,5.0,8.0,94,0.00,,,0.00,meteohub,2013-02-28 11:52:00,
2013-02-28 03:57:00,49.8,48.2,30.22,NW,315,7.0,10.0,94,0.00,,,0.00,meteohub,2013-02-28 11:57:00,
2013-02-28 04:02:00,50.4,48.7,30.22,NW,315,8.0,10.0,94,0.00,,,0.00,meteohub,2013-02-28 12:02:00,
2013-02-28 04:07:00,52.0,48.2,30.22,North,0,16.0,16.0,87,0.00,,,0.00,meteohub,2013-02-28 12:07:00,
2013-02-28 04:12:00,52.9,48.2,30.22,North,0,18.0,19.0,84,0.00,,,0.00,meteohub,2013-02-28 12:12:00,
2013-02-28 04:17:00,52.9,48.6,30.22,North,0,16.0,22.0,85,0.00,,,0.00,meteohub,2013-02-28 12:17:00,
2013-02-28 04:22:00,52.7,48.6,30.22,North,0,15.0,22.0,86,0.00,,,0.00,meteohub,2013-02-28 12:22:00,
2013-02-28 04:27:00,52.9,48.6,30.22,WNW,293,17.0,22.0,85,0.00,,,0.00,meteohub,2013-02-28 12:27:00,
2013-02-28 04:32:00,52.9,48.6,30.22,North,0,16.0,21.0,85,0.00,,,0.00,meteohub,2013-02-28 12:32:00,
2013-02-28 04:37:00,52.7,48.6,30.22,North,0,20.0,21.0,86,0.00,,,0.00,meteohub,2013-02-28 12:37:00,
2013-02-28 04:42:00,52.5,48.7,30.23,North,0,15.0,22.0,87,0.00,,,0.00,meteohub,2013-02-28 12:42:00,
2013-02-28 04:47:00,52.5,48.7,30.22,North,0,19.0,22.0,87,0.00,,,0.00,meteohub,2013-02-28 12:47:00,
2013-02-28 04:52:00,52.5,48.7,30.22,NW,315,15.0,20.0,87,0.00,,,0.00,meteohub,2013-02-28 12:52:00,
2013-02-28 04:57:00,52.9,48.6,30.23,NW,315,18.0,21.0,85,0.00,,,0.00,meteohub,2013-02-28 12:57:00,
2013-02-28 05:02:00,52.7,48.6,30.23,North,0,11.0,21.0,86,0.00,,,0.00,meteohub,2013-02-28 13:02:00,
2013-02-28 05:07:00,52.7,48.4,30.23,North,0,16.0,21.0,85,0.00,,,0.00,meteohub,2013-02-28 13:07:00,
2013-02-28 05:12:00,52.9,48.6,30.23,North,0,11.0,18.0,85,0.00,,,0.00,meteohub,2013-02-28 13:12:00,
2013-02-28 05:17:00,52.9,48.6,30.23,WNW,293,11.0,17.0,85,0.00,,,0.00,meteohub,2013-02-28 13:17:00,
2013-02-28 05:22:00,52.9,48.6,30.23,North,0,17.0,17.0,85,0.00,,,0.00,meteohub,2013-02-28 13:22:00,
2013-02-28 05:27:00,52.9,48.6,30.23,North,0,17.0,17.0,85,0.00,,,0.00,meteohub,2013-02-28 13:27:00,
2013-02-28 05:32:00,52.9,48.2,30.23,North,0,21.0,21.0,84,0.00,,,0.00,meteohub,2013-02-28 13:32:00,
2013-02-28 05:37:00,52.9,48.6,30.24,North,0,14.0,21.0,85,0.00,,,0.00,meteohub,2013-02-28 13:37:00,
2013-02-28 05:42:00,52.9,48.6,30.24,North,0,12.0,21.0,85,0.00,,,0.00,meteohub,2013-02-28 13:42:00,
2013-02-28 05:47:00,52.7,48.6,30.24,North,0,11.0,21.0,86,0.00,,,0.00,meteohub,2013-02-28 13:47:00,
2013-02-28 05:52:00,52.7,48.6,30.24,North,0,15.0,17.0,86,0.00,,,0.00,meteohub,2013-02-28 13:52:00,
2013-02-28 05:57:00,52.7,48.6,30.24,North,0,13.0,15.0,86,0.00,,,0.00,meteohub,2013-02-28 13:57:00,
2013-02-28 06:02:00,52.5,48.7,30.24,North,0,11.0,16.0,87,0.00,,,0.00,meteohub,2013-02-28 14:02:00,
2013-02-28 06:07:00,52.5,48.7,30.24,North,0,8.0,16.0,87,0.00,,,0.00,meteohub,2013-02-28 14:07:00,
2013-02-28 06:12:00,52.7,48.6,30.24,North,0,15.0,16.0,86,0.00,,,0.00,meteohub,2013-02-28 14:12:00,
2013-02-28 06:17:00,52.7,48.6,30.25,North,0,10.0,16.0,86,0.00,,,0.00,meteohub,2013-02-28 14:17:00,
2013-02-28 06:22:00,52.5,49.1,30.25,North,0,11.0,16.0,88,0.00,,,0.00,meteohub,2013-02-28 14:22:00,
2013-02-28 06:27:00,52.5,49.1,30.25,North,0,12.0,16.0,88,0.00,,,0.00,meteohub,2013-02-28 14:27:00,
2013-02-28 06:32:00,52.5,49.1,30.25,North,0,14.0,15.0,88,0.00,,,0.00,meteohub,2013-02-28 14:32:00,
2013-02-28 06:37:00,52.5,49.1,30.25,North,0,15.0,15.0,88,0.00,,,0.00,meteohub,2013-02-28 14:37:00,
2013-02-28 06:42:00,52.7,49.3,30.25,North,0,11.0,15.0,88,0.00,,,0.00,meteohub,2013-02-28 14:42:00,
2013-02-28 06:47:00,52.7,48.9,30.26,North,0,8.0,15.0,87,0.00,,,0.00,meteohub,2013-02-28 14:47:00,
2013-02-28 06:52:00,52.7,48.9,30.26,NW,315,9.0,15.0,87,0.00,,,0.00,meteohub,2013-02-28 14:52:00,
2013-02-28 06:57:00,52.7,49.3,30.26,North,0,11.0,15.0,88,0.00,,,0.00,meteohub,2013-02-28 14:57:00,
2013-02-28 07:02:00,52.9,49.1,30.26,North,0,12.0,16.0,87,0.00,,,0.00,meteohub,2013-02-28 15:02:00,
2013-02-28 07:07:00,52.9,49.1,30.26,NW,315,10.0,16.0,87,0.00,,,0.00,meteohub,2013-02-28 15:07:00,
2013-02-28 07:12:00,52.9,49.1,30.26,North,0,12.0,16.0,87,0.00,,,0.00,meteohub,2013-02-28 15:12:00,
2013-02-28 07:17:00,52.9,49.5,30.26,North,0,11.0,15.0,88,0.00,,,0.00,meteohub,2013-02-28 15:17:00,
2013-02-28 07:22:00,52.9,49.5,30.26,North,0,14.0,15.0,88,0.00,,,0.00,meteohub,2013-02-28 15:22:00,
2013-02-28 07:27:00,53.1,49.6,30.26,North,0,17.0,17.0,88,0.00,,,0.00,meteohub,2013-02-28 15:27:00,
2013-02-28 07:32:00,52.9,49.5,30.26,North,0,12.0,19.0,88,0.00,,,0.00,meteohub,2013-02-28 15:32:00,
2013-02-28 07:37:00,52.9,49.5,30.27,NW,315,10.0,19.0,88,0.00,,,0.00,meteohub,2013-02-28 15:37:00,
2013-02-28 07:42:00,52.9,49.6,30.27,North,0,14.0,19.0,89,0.00,,,0.00,meteohub,2013-02-28 15:42:00,
2013-02-28 07:47:00,52.9,49.6,30.27,North,0,11.0,18.0,89,0.00,,,0.00,meteohub,2013-02-28 15:47:00,
2013-02-28 07:52:00,52.7,49.8,30.27,NNW,338,8.0,18.0,90,0.00,,,0.00,meteohub,2013-02-28 15:52:00,
2013-02-28 07:57:00,52.7,50.2,30.27,NW,315,11.0,18.0,91,0.00,,,0.00,meteohub,2013-02-28 15:57:00,
2013-02-28 08:02:00,52.5,50.0,30.27,NW,315,8.0,16.0,91,0.00,,,0.00,meteohub,2013-02-28 16:02:00,
2013-02-28 08:07:00,52.5,50.2,30.27,NW,315,6.0,11.0,92,0.00,,,0.00,meteohub,2013-02-28 16:07:00,
2013-02-28 08:12:00,52.5,50.2,30.28,NW,315,8.0,11.0,92,0.00,,,0.00,meteohub,2013-02-28 16:12:00,
2013-02-28 08:17:00,52.5,50.2,30.29,North,0,8.0,11.0,92,0.00,,,0.00,meteohub,2013-02-28 16:17:00,
2013-02-28 08:22:00,52.5,50.5,30.28,NW,315,5.0,11.0,93,0.00,,,0.00,meteohub,2013-02-28 16:22:00,
2013-02-28 08:27:00,52.5,50.5,30.28,NNW,338,9.0,11.0,93,0.01,,,0.00,meteohub,2013-02-28 16:27:00,
2013-02-28 08:32:00,52.5,50.5,30.28,North,0,12.0,12.0,93,0.01,,,0.01,meteohub,2013-02-28 16:32:00,
2013-02-28 08:38:00,52.7,51.1,30.28,NNW,338,8.0,12.0,94,0.01,,,0.01,meteohub,2013-02-28 16:38:00,
2013-02-28 08:43:00,52.7,50.7,30.29,WNW,293,8.0,12.0,93,0.01,,,0.01,meteohub,2013-02-28 16:43:00,
2013-02-28 08:48:00,52.7,50.7,30.29,North,0,9.0,12.0,93,0.01,,,0.01,meteohub,2013-02-28 16:48:00,
2013-02-28 08:53:00,52.9,50.9,30.29,North,0,10.0,12.0,93,0.02,,,0.02,meteohub,2013-02-28 16:53:00,
2013-02-28 08:58:00,52.9,50.9,30.29,NW,315,11.0,12.0,93,0.02,,,0.02,meteohub,2013-02-28 16:58:00,
2013-02-28 09:03:00,52.9,50.9,30.30,NW,315,7.0,12.0,93,0.02,,,0.02,meteohub,2013-02-28 17:03:00,
2013-02-28 09:08:00,52.9,50.9,30.30,North,0,13.0,13.0,93,0.02,,,0.02,meteohub,2013-02-28 17:08:00,
2013-02-28 09:13:00,52.9,50.9,30.30,NW,315,8.0,12.0,93,0.02,,,0.02,meteohub,2013-02-28 17:13:00,
2013-02-28 09:18:00,52.9,50.5,30.30,North,0,14.0,14.0,92,0.02,,,0.02,meteohub,2013-02-28 17:18:00,
2013-02-28 09:23:00,52.9,50.5,30.30,North,0,12.0,15.0,92,0.02,,,0.02,meteohub,2013-02-28 17:23:00,
2013-02-28 09:28:00,52.9,50.5,30.30,North,0,16.0,17.0,92,0.01,,,0.02,meteohub,2013-02-28 17:28:00,
2013-02-28 09:33:00,52.9,50.9,30.30,North,0,11.0,17.0,93,0.01,,,0.02,meteohub,2013-02-28 17:33:00,
2013-02-28 09:38:00,52.9,51.3,30.30,North,0,8.0,17.0,94,0.02,,,0.02,meteohub,2013-02-28 17:38:00,
2013-02-28 09:43:00,52.9,50.9,30.31,North,0,15.0,17.0,93,0.04,,,0.05,meteohub,2013-02-28 17:43:00,
2013-02-28 09:48:00,52.9,50.9,30.30,NW,315,15.0,16.0,93,0.04,,,0.05,meteohub,2013-02-28 17:48:00,
2013-02-28 09:53:00,52.9,50.9,30.31,North,0,11.0,16.0,93,0.02,,,0.05,meteohub,2013-02-28 17:53:00,
2013-02-28 09:58:00,52.9,50.9,30.30,NW,315,15.0,16.0,93,0.02,,,0.05,meteohub,2013-02-28 17:58:00,
2013-02-28 10:03:00,52.9,50.9,30.30,NW,315,13.0,17.0,93,0.02,,,0.05,meteohub,2013-02-28 18:03:00,
2013-02-28 10:08:00,52.9,51.3,30.30,NW,315,11.0,17.0,94,0.02,,,0.05,meteohub,2013-02-28 18:08:00,
2013-02-28 10:13:00,52.9,51.3,30.32,North,0,10.0,17.0,94,0.02,,,0.05,meteohub,2013-02-28 18:13:00,
2013-02-28 10:18:00,52.9,51.3,30.32,NW,315,11.0,17.0,94,0.02,,,0.05,meteohub,2013-02-28 18:18:00,
2013-02-28 10:23:00,53.1,51.4,30.32,NW,315,12.0,13.0,94,0.02,,,0.05,meteohub,2013-02-28 18:23:00,
2013-02-28 10:28:00,53.1,51.1,30.32,NW,315,12.0,12.0,93,0.02,,,0.05,meteohub,2013-02-28 18:28:00,
2013-02-28 10:33:00,53.4,51.1,30.32,North,0,15.0,15.0,92,0.02,,,0.05,meteohub,2013-02-28 18:33:00,
2013-02-28 10:38:00,53.8,51.3,30.32,North,0,19.0,19.0,91,0.02,,,0.06,meteohub,2013-02-28 18:38:00,
2013-02-28 10:43:00,54.0,51.4,30.32,North,0,19.0,20.0,91,0.01,,,0.06,meteohub,2013-02-28 18:43:00,
2013-02-28 10:48:00,54.0,51.4,30.32,WNW,293,11.0,20.0,91,0.01,,,0.06,meteohub,2013-02-28 18:48:00,
2013-02-28 10:53:00,54.1,51.6,30.33,North,0,15.0,20.0,91,0.01,,,0.06,meteohub,2013-02-28 18:53:00,
2013-02-28 10:58:00,54.1,51.6,30.33,NW,315,17.0,21.0,91,0.01,,,0.06,meteohub,2013-02-28 18:58:00,
2013-02-28 11:03:00,54.0,51.6,30.33,North,0,16.0,21.0,92,0.01,,,0.06,meteohub,2013-02-28 19:03:00,
2013-02-28 11:08:00,53.8,51.4,30.32,North,0,18.0,18.0,92,0.01,,,0.06,meteohub,2013-02-28 19:08:00,
2013-02-28 11:13:00,53.8,51.8,30.33,North,0,18.0,21.0,93,0.02,,,0.07,meteohub,2013-02-28 19:13:00,
2013-02-28 11:18:00,54.0,51.6,30.33,North,0,17.0,21.0,92,0.02,,,0.07,meteohub,2013-02-28 19:18:00,
2013-02-28 11:23:00,54.1,52.2,30.34,North,0,11.0,21.0,93,0.02,,,0.07,meteohub,2013-02-28 19:23:00,
2013-02-28 11:28:00,54.1,52.2,30.33,North,0,15.0,19.0,93,0.02,,,0.07,meteohub,2013-02-28 19:28:00,
2013-02-28 11:33:00,54.1,51.6,30.33,North,0,19.0,19.0,91,0.01,,,0.07,meteohub,2013-02-28 19:33:00,
2013-02-28 11:38:00,54.3,52.0,30.33,North,0,17.0,19.0,92,0.01,,,0.07,meteohub,2013-02-28 19:38:00,
2013-02-28 11:44:00,54.5,52.0,30.33,North,0,15.0,19.0,91,0.01,,,0.07,meteohub,2013-02-28 19:44:00,
2013-02-28 11:49:00,54.9,52.5,30.33,North,0,15.0,19.0,92,0.01,,,0.07,meteohub,2013-02-28 19:49:00,
2013-02-28 11:54:00,55.0,52.5,30.34,North,0,15.0,18.0,91,0.01,,,0.07,meteohub,2013-02-28 19:54:00,
2013-02-28 11:59:00,55.0,52.5,30.34,North,0,11.0,17.0,91,0.01,,,0.07,meteohub,2013-02-28 19:59:00,
2013-02-28 12:04:00,54.9,52.3,30.34,North,0,16.0,16.0,91,0.01,,,0.07,meteohub,2013-02-28 20:04:00,
2013-02-28 12:09:00,55.0,52.5,30.34,NW,315,11.0,16.0,91,0.01,,,0.07,meteohub,2013-02-28 20:09:00,
2013-02-28 12:14:00,55.2,52.7,30.34,North,0,10.0,16.0,91,0.00,,,0.07,meteohub,2013-02-28 20:14:00,
2013-02-28 12:19:00,55.8,52.9,30.34,NW,315,14.0,17.0,90,0.00,,,0.07,meteohub,2013-02-28 20:19:00,
2013-02-28 12:24:00,55.9,52.5,30.35,North,0,20.0,20.0,88,0.00,,,0.07,meteohub,2013-02-28 20:24:00,
2013-02-28 12:29:00,56.1,52.3,30.34,North,0,16.0,17.0,87,0.00,,,0.07,meteohub,2013-02-28 20:29:00,
2013-02-28 12:34:00,56.3,52.5,30.35,North,0,17.0,20.0,87,0.00,,,0.07,meteohub,2013-02-28 20:34:00,
2013-02-28 12:39:00,56.5,52.3,30.34,North,0,19.0,20.0,86,0.00,,,0.07,meteohub,2013-02-28 20:39:00,
2013-02-28 12:44:00,57.2,53.1,30.34,North,0,15.0,19.0,86,0.00,,,0.07,meteohub,2013-02-28 20:44:00,
2013-02-28 12:49:00,57.7,52.7,30.34,North,0,17.0,20.0,83,0.00,,,0.07,meteohub,2013-02-28 20:49:00,
2013-02-28 12:54:00,57.9,52.7,30.35,North,0,22.0,22.0,83,0.00,,,0.07,meteohub,2013-02-28 20:54:00,
2013-02-28 12:59:00,58.1,52.3,30.34,North,0,22.0,22.0,81,0.00,,,0.07,meteohub,2013-02-28 20:59:00,
2013-02-28 13:04:00,58.3,53.1,30.34,North,0,15.0,23.0,83,0.00,,,0.07,meteohub,2013-02-28 21:04:00,
2013-02-28 13:09:00,58.1,52.7,30.34,North,0,17.0,23.0,82,0.00,,,0.07,meteohub,2013-02-28 21:09:00,
2013-02-28 13:14:00,58.5,52.7,30.34,North,0,25.0,25.0,81,0.00,,,0.07,meteohub,2013-02-28 21:14:00,
2013-02-28 13:19:00,59.0,53.2,30.34,North,0,18.0,25.0,81,0.00,,,0.07,meteohub,2013-02-28 21:19:00,
2013-02-28 13:24:00,58.8,53.1,30.33,North,0,22.0,25.0,81,0.00,,,0.07,meteohub,2013-02-28 21:24:00,
2013-02-28 13:29:00,58.8,53.4,30.33,North,0,19.0,25.0,82,0.00,,,0.07,meteohub,2013-02-28 21:29:00,
2013-02-28 13:34:00,58.8,53.1,30.33,North,0,20.0,23.0,81,0.00,,,0.07,meteohub,2013-02-28 21:34:00,
2013-02-28 13:39:00,58.8,52.7,30.33,North,0,25.0,25.0,80,0.00,,,0.07,meteohub,2013-02-28 21:39:00,
2013-02-28 13:44:00,58.5,52.7,30.33,North,0,24.0,25.0,81,0.00,,,0.07,meteohub,2013-02-28 21:44:00,
2013-02-28 13:49:00,58.6,52.9,30.34,North,0,21.0,28.0,81,0.00,,,0.07,meteohub,2013-02-28 21:49:00,
2013-02-28 13:54:00,59.2,53.1,30.33,North,0,19.0,28.0,80,0.00,,,0.07,meteohub,2013-02-28 21:54:00,
2013-02-28 13:59:00,59.5,53.4,30.33,North,0,18.0,28.0,80,0.00,,,0.07,meteohub,2013-02-28 21:59:00,
2013-02-28 14:04:00,58.5,52.7,30.34,North,0,19.0,23.0,81,0.00,,,0.07,meteohub,2013-02-28 22:04:00,
2013-02-28 14:09:00,58.3,52.9,30.34,North,0,16.0,23.0,82,0.00,,,0.07,meteohub,2013-02-28 22:09:00,
2013-02-28 14:14:00,57.7,52.0,30.34,North,0,23.0,23.0,81,0.00,,,0.07,meteohub,2013-02-28 22:14:00,
2013-02-28 14:19:00,57.9,52.7,30.34,North,0,17.0,23.0,83,0.00,,,0.07,meteohub,2013-02-28 22:19:00,
2013-02-28 14:24:00,58.1,52.9,30.34,North,0,18.0,23.0,83,0.00,,,0.07,meteohub,2013-02-28 22:24:00,
2013-02-28 14:29:00,58.1,52.7,30.34,North,0,16.0,23.0,82,0.00,,,0.07,meteohub,2013-02-28 22:29:00,
2013-02-28 14:34:00,58.1,52.9,30.35,North,0,21.0,23.0,83,0.00,,,0.07,meteohub,2013-02-28 22:34:00,
2013-02-28 14:39:00,57.9,52.7,30.35,North,0,20.0,24.0,83,0.00,,,0.07,meteohub,2013-02-28 22:39:00,
2013-02-28 14:44:00,57.9,52.7,30.35,North,0,21.0,24.0,83,0.00,,,0.07,meteohub,2013-02-28 22:44:00,
2013-02-28 14:49:00,57.9,53.1,30.35,NE,45,21.0,24.0,84,0.00,,,0.07,meteohub,2013-02-28 22:49:00,
2013-02-28 14:54:00,57.7,53.2,30.35,North,0,17.0,23.0,85,0.00,,,0.07,meteohub,2013-02-28 22:54:00,
2013-02-28 14:59:00,57.4,53.2,30.36,North,0,17.0,23.0,86,0.00,,,0.07,meteohub,2013-02-28 22:59:00,
2013-02-28 15:04:00,57.4,53.2,30.35,North,0,17.0,23.0,86,0.00,,,0.07,meteohub,2013-02-28 23:04:00,
2013-02-28 15:09:00,57.4,53.2,30.36,North,0,17.0,22.0,86,0.00,,,0.07,meteohub,2013-02-28 23:09:00,
2013-02-28 15:14:00,57.0,52.9,30.36,North,0,26.0,26.0,86,0.00,,,0.07,meteohub,2013-02-28 23:14:00,
2013-02-28 15:19:00,57.0,53.2,30.36,North,0,16.0,23.0,87,0.00,,,0.07,meteohub,2013-02-28 23:19:00,
2013-02-28 15:24:00,56.7,53.8,30.37,North,0,19.0,26.0,90,0.00,,,0.07,meteohub,2013-02-28 23:24:00,
2013-02-28 15:29:00,56.1,53.8,30.36,North,0,17.0,26.0,92,0.00,,,0.07,meteohub,2013-02-28 23:29:00,
2013-02-28 15:34:00,56.1,53.6,30.36,North,0,15.0,24.0,91,0.00,,,0.07,meteohub,2013-02-28 23:34:00,
2013-02-28 15:39:00,56.1,53.6,30.36,North,0,12.0,24.0,91,0.00,,,0.07,meteohub,2013-02-28 23:39:00,
2013-02-28 15:45:00,56.3,53.8,30.37,North,0,19.0,24.0,91,0.00,,,0.07,meteohub,2013-02-28 23:45:00,
2013-02-28 15:50:00,56.3,53.8,30.36,North,0,15.0,19.0,91,0.00,,,0.07,meteohub,2013-02-28 23:50:00,
2013-02-28 15:55:00,56.3,53.4,30.36,North,0,16.0,19.0,90,0.00,,,0.07,meteohub,2013-02-28 23:55:00,
2013-02-28 16:00:00,56.3,53.4,30.36,North,0,19.0,19.0,90,0.00,,,0.07,meteohub,2013-03-01 00:00:00,
2013-02-28 16:05:00,56.3,53.4,30.36,North,0,17.0,21.0,90,0.00,,,0.07,meteohub,2013-03-01 00:05:00,
2013-02-28 16:10:00,56.3,53.4,30.36,North,0,20.0,21.0,90,0.00,,,0.07,meteohub,2013-03-01 00:10:00,
2013-02-28 16:15:00,56.1,53.2,30.37,North,0,23.0,23.0,90,0.00,,,0.07,meteohub,2013-03-01 00:15:00,
2013-02-28 16:20:00,56.1,53.2,30.37,North,0,20.0,23.0,90,0.00,,,0.07,meteohub,2013-03-01 00:20:00,
2013-02-28 16:25:00,56.3,53.1,30.37,North,0,22.0,23.0,89,0.00,,,0.07,meteohub,2013-03-01 00:25:00,
2013-02-28 16:30:00,56.3,53.4,30.37,North,0,19.0,23.0,90,0.00,,,0.07,meteohub,2013-03-01 00:30:00,
2013-02-28 16:35:00,56.3,53.8,30.37,North,0,20.0,23.0,91,0.00,,,0.07,meteohub,2013-03-01 00:35:00,
2013-02-28 16:40:00,56.1,53.6,30.37,North,0,17.0,23.0,91,0.00,,,0.07,meteohub,2013-03-01 00:40:00,
2013-02-28 16:45:00,55.9,54.0,30.38,North,0,15.0,21.0,93,0.00,,,0.07,meteohub,2013-03-01 00:45:00,
2013-02-28 16:50:00,55.6,54.0,30.38,North,0,17.0,22.0,94,0.00,,,0.07,meteohub,2013-03-01 00:50:00,
2013-02-28 16:55:00,55.8,53.8,30.38,North,0,15.0,22.0,93,0.00,,,0.07,meteohub,2013-03-01 00:55:00,
2013-02-28 17:00:00,55.8,54.1,30.38,North,0,17.0,22.0,94,0.00,,,0.07,meteohub,2013-03-01 01:00:00,
2013-02-28 17:05:00,55.4,53.8,30.38,North,0,21.0,21.0,94,0.00,,,0.07,meteohub,2013-03-01 01:05:00,
2013-02-28 17:10:00,55.2,54.3,30.39,North,0,13.0,21.0,97,0.00,,,0.07,meteohub,2013-03-01 01:10:00,
2013-02-28 17:15:00,55.0,54.1,30.39,North,0,19.0,21.0,97,0.01,,,0.08,meteohub,2013-03-01 01:15:00,
2013-02-28 17:20:00,55.4,53.8,30.39,North,0,17.0,21.0,94,0.02,,,0.09,meteohub,2013-03-01 01:20:00,
2013-02-28 17:25:00,55.4,53.8,30.39,North,0,13.0,23.0,94,0.02,,,0.09,meteohub,2013-03-01 01:25:00,
2013-02-28 17:30:00,55.2,54.3,30.39,North,0,15.0,23.0,97,0.02,,,0.09,meteohub,2013-03-01 01:30:00,
2013-02-28 17:35:00,55.2,54.1,30.39,North,0,15.0,19.0,96,0.02,,,0.09,meteohub,2013-03-01 01:35:00,
2013-02-28 17:40:00,55.2,54.1,30.39,North,0,13.0,18.0,96,0.02,,,0.09,meteohub,2013-03-01 01:40:00,
2013-02-28 17:45:00,55.2,54.1,30.39,North,0,18.0,18.0,96,0.02,,,0.09,meteohub,2013-03-01 01:45:00,
2013-02-28 17:50:00,55.2,54.1,30.39,North,0,17.0,18.0,96,0.02,,,0.09,meteohub,2013-03-01 01:50:00,
2013-02-28 17:55:00,55.2,53.8,30.40,North,0,15.0,18.0,95,0.02,,,0.09,meteohub,2013-03-01 01:55:00,
2013-02-28 18:00:00,55.2,53.8,30.39,North,0,16.0,18.0,95,0.02,,,0.09,meteohub,2013-03-01 02:00:00,
2013-02-28 18:05:00,55.4,53.8,30.40,North,0,15.0,19.0,94,0.02,,,0.09,meteohub,2013-03-01 02:05:00,
2013-02-28 18:10:00,55.4,53.8,30.40,North,0,17.0,21.0,94,0.02,,,0.09,meteohub,2013-03-01 02:10:00,
2013-02-28 18:15:00,55.4,53.8,30.40,North,0,17.0,21.0,94,0.00,,,0.09,meteohub,2013-03-01 02:15:00,
2013-02-28 18:20:00,55.6,54.0,30.40,North,0,16.0,21.0,94,0.00,,,0.09,meteohub,2013-03-01 02:20:00,
2013-02-28 18:25:00,55.4,53.8,30.40,North,0,15.0,18.0,94,0.00,,,0.09,meteohub,2013-03-01 02:25:00,
2013-02-28 18:30:00,55.6,53.6,30.40,North,0,18.0,19.0,93,0.00,,,0.09,meteohub,2013-03-01 02:30:00,
2013-02-28 18:35:00,55.6,54.0,30.40,North,0,15.0,19.0,94,0.00,,,0.09,meteohub,2013-03-01 02:35:00,
2013-02-28 18:40:00,55.4,54.0,30.41,North,0,15.0,19.0,95,0.00,,,0.09,meteohub,2013-03-01 02:40:00,
2013-02-28 18:45:00,55.2,53.8,30.40,North,0,15.0,18.0,95,0.00,,,0.09,meteohub,2013-03-01 02:45:00,
2013-02-28 18:50:00,55.4,53.4,30.41,North,0,17.0,17.0,93,0.00,,,0.09,meteohub,2013-03-01 02:50:00,
2013-02-28 18:55:00,55.4,53.8,30.41,North,0,13.0,20.0,94,0.00,,,0.09,meteohub,2013-03-01 02:55:00,
2013-02-28 19:00:00,55.2,53.6,30.41,North,0,13.0,20.0,94,0.00,,,0.09,meteohub,2013-03-01 03:00:00,
2013-02-28 19:05:00,55.0,53.1,30.41,North,0,18.0,18.0,93,0.00,,,0.09,meteohub,2013-03-01 03:05:00,
2013-02-28 19:10:00,55.0,53.1,30.41,North,0,15.0,18.0,93,0.00,,,0.09,meteohub,2013-03-01 03:10:00,
2013-02-28 19:15:00,55.0,52.7,30.41,North,0,17.0,18.0,92,0.00,,,0.09,meteohub,2013-03-01 03:15:00,
2013-02-28 19:20:00,54.9,52.5,30.42,North,0,17.0,18.0,92,0.00,,,0.09,meteohub,2013-03-01 03:20:00,
2013-02-28 19:25:00,54.9,52.9,30.42,North,0,12.0,20.0,93,0.00,,,0.09,meteohub,2013-03-01 03:25:00,
2013-02-28 19:30:00,54.9,52.9,30.42,North,0,11.0,20.0,93,0.00,,,0.09,meteohub,2013-03-01 03:30:00,
2013-02-28 19:35:00,54.5,53.1,30.41,North,0,12.0,17.0,95,0.00,,,0.09,meteohub,2013-03-01 03:35:00,
2013-02-28 19:40:00,54.7,53.1,30.41,North,0,14.0,16.0,94,0.00,,,0.09,meteohub,2013-03-01 03:40:00,
2013-02-28 19:45:00,54.7,53.1,30.41,NW,315,11.0,15.0,94,0.00,,,0.09,meteohub,2013-03-01 03:45:00,
2013-02-28 19:50:00,54.7,53.1,30.42,North,0,15.0,15.0,94,0.00,,,0.09,meteohub,2013-03-01 03:50:00,
2013-02-28 19:55:00,54.7,52.7,30.43,North,0,13.0,15.0,93,0.00,,,0.09,meteohub,2013-03-01 03:55:00,
2013-02-28 20:00:00,54.9,52.5,30.43,North,0,17.0,17.0,92,0.00,,,0.09,meteohub,2013-03-01 04:00:00,
2013-02-28 20:05:00,55.0,52.5,30.42,North,0,22.0,22.0,91,0.00,,,0.09,meteohub,2013-03-01 04:05:00,
2013-02-28 20:11:00,55.0,52.7,30.42,North,0,16.0,22.0,92,0.00,,,0.09,meteohub,2013-03-01 04:11:00,
2013-02-28 20:16:00,54.9,52.5,30.42,North,0,14.0,22.0,92,0.00,,,0.09,meteohub,2013-03-01 04:16:00,
2013-02-28 20:21:00,54.7,52.7,30.43,North,0,13.0,22.0,93,0.00,,,0.09,meteohub,2013-03-01 04:21:00,
2013-02-28 20:26:00,54.7,52.7,30.42,North,0,13.0,18.0,93,0.00,,,0.09,meteohub,2013-03-01 04:26:00,
2013-02-28 20:31:00,54.7,53.1,30.43,North,0,13.0,14.0,94,0.00,,,0.09,meteohub,2013-03-01 04:31:00,
2013-02-28 20:36:00,54.7,53.2,30.43,North,0,12.0,14.0,95,0.00,,,0.09,meteohub,2013-03-01 04:36:00,
2013-02-28 20:41:00,54.7,53.1,30.43,North,0,15.0,15.0,94,0.00,,,0.09,meteohub,2013-03-01 04:41:00,
2013-02-28 20:46:00,54.7,53.1,30.43,North,0,10.0,15.0,94,0.00,,,0.09,meteohub,2013-03-01 04:46:00,
2013-02-28 20:51:00,54.7,53.1,30.43,North,0,13.0,15.0,94,0.00,,,0.09,meteohub,2013-03-01 04:51:00,
2013-02-28 20:56:00,54.9,52.9,30.43,North,0,11.0,15.0,93,0.00,,,0.09,meteohub,2013-03-01 04:56:00,
2013-02-28 21:00:00,54.9,52.9,30.43,North,0,10.0,13.0,93,0.00,,,0.09,meteohub,2013-03-01 05:00:00,
2013-02-28 21:06:00,54.7,52.7,30.43,North,0,11.0,13.0,93,0.00,,,0.09,meteohub,2013-03-01 05:06:00,
2013-02-28 21:07:00,54.7,52.7,30.43,North,0,13.0,13.0,93,0.00,,,0.09,meteohub,2013-03-01 05:07:00,
2013-02-28 21:12:00,55.0,52.2,30.43,North,0,17.0,17.0,90,0.00,,,0.09,meteohub,2013-03-01 05:12:00,
2013-02-28 21:17:00,55.2,52.0,30.43,North,0,17.0,21.0,89,0.00,,,0.09,meteohub,2013-03-01 05:17:00,
2013-02-28 21:22:00,55.2,52.0,30.43,North,0,19.0,21.0,89,0.00,,,0.09,meteohub,2013-03-01 05:22:00,
2013-02-28 21:27:00,54.9,52.0,30.43,North,0,17.0,23.0,90,0.00,,,0.09,meteohub,2013-03-01 05:27:00,
2013-02-28 21:32:00,54.9,52.3,30.43,North,0,17.0,23.0,91,0.00,,,0.09,meteohub,2013-03-01 05:32:00,
2013-02-28 21:37:00,55.0,52.2,30.43,North,0,19.0,22.0,90,0.00,,,0.09,meteohub,2013-03-01 05:37:00,
2013-02-28 21:42:00,55.0,52.2,30.43,North,0,19.0,22.0,90,0.00,,,0.09,meteohub,2013-03-01 05:42:00,
2013-02-28 21:47:00,54.9,52.3,30.43,North,0,13.0,22.0,91,0.00,,,0.09,meteohub,2013-03-01 05:47:00,
2013-02-28 21:52:00,54.9,52.3,30.44,North,0,16.0,22.0,91,0.00,,,0.09,meteohub,2013-03-01 05:52:00,
2013-02-28 21:57:00,54.9,52.3,30.44,North,0,13.0,19.0,91,0.00,,,0.09,meteohub,2013-03-01 05:57:00,
2013-02-28 22:02:00,54.9,52.5,30.44,North,0,15.0,17.0,92,0.00,,,0.09,meteohub,2013-03-01 06:02:00,
2013-02-28 22:07:00,55.0,52.5,30.44,North,0,12.0,17.0,91,0.00,,,0.09,meteohub,2013-03-01 06:07:00,
2013-02-28 22:12:00,55.0,52.5,30.45,North,0,17.0,17.0,91,0.00,,,0.09,meteohub,2013-03-01 06:12:00,
2013-02-28 22:17:00,55.0,52.5,30.45,North,0,15.0,17.0,91,0.00,,,0.09,meteohub,2013-03-01 06:17:00,
2013-02-28 22:22:00,55.0,52.5,30.45,North,0,17.0,17.0,91,0.00,,,0.09,meteohub,2013-03-01 06:22:00,
2013-02-28 22:27:00,55.2,52.3,30.45,SW,225,20.0,20.0,90,0.00,,,0.09,meteohub,2013-03-01 06:27:00,
2013-02-28 22:32:00,55.6,52.3,30.46,North,0,16.0,20.0,89,0.00,,,0.09,meteohub,2013-03-01 06:32:00,
2013-02-28 22:37:00,55.6,52.3,30.46,NNE,23,20.0,22.0,89,0.00,,,0.09,meteohub,2013-03-01 06:37:00,
2013-02-28 22:42:00,55.4,52.5,30.46,North,0,17.0,22.0,90,0.00,,,0.09,meteohub,2013-03-01 06:42:00,
2013-02-28 22:47:00,55.2,52.7,30.46,North,0,16.0,22.0,91,0.00,,,0.09,meteohub,2013-03-01 06:47:00,
2013-02-28 22:52:00,54.9,52.5,30.46,North,0,17.0,20.0,92,0.00,,,0.09,meteohub,2013-03-01 06:52:00,
2013-02-28 22:57:00,55.0,52.5,30.45,North,0,15.0,18.0,91,0.00,,,0.09,meteohub,2013-03-01 06:57:00,
2013-02-28 23:02:00,54.9,52.3,30.45,North,0,13.0,17.0,91,0.00,,,0.09,meteohub,2013-03-01 07:02:00,
2013-02-28 23:07:00,54.9,52.3,30.45,North,0,13.0,18.0,91,0.00,,,0.09,meteohub,2013-03-01 07:07:00,
2013-02-28 23:12:00,54.7,52.2,30.45,North,0,11.0,18.0,91,0.00,,,0.09,meteohub,2013-03-01 07:12:00,
2013-02-28 23:17:00,54.9,52.0,30.45,North,0,13.0,15.0,90,0.00,,,0.09,meteohub,2013-03-01 07:17:00,
2013-02-28 23:22:00,54.9,52.0,30.45,North,0,15.0,15.0,90,0.00,,,0.09,meteohub,2013-03-01 07:22:00,
2013-02-28 23:27:00,55.0,51.8,30.45,North,0,17.0,17.0,89,0.00,,,0.09,meteohub,2013-03-01 07:27:00,
2013-02-28 23:33:00,54.9,52.0,30.45,North,0,16.0,19.0,90,0.00,,,0.09,meteohub,2013-03-01 07:33:00,
2013-02-28 23:38:00,54.9,52.0,30.45,North,0,13.0,19.0,90,0.00,,,0.09,meteohub,2013-03-01 07:38:00,
2013-02-28 23:43:00,54.7,51.8,30.45,North,0,13.0,19.0,90,0.00,,,0.09,meteohub,2013-03-01 07:43:00,
2013-02-28 23:48:00,55.0,51.6,30.45,North,0,13.0,16.0,88,0.00,,,0.09,meteohub,2013-03-01 07:48:00,
2013-02-28 23:53:00,55.2,51.4,30.45,North,0,15.0,19.0,87,0.00,,,0.09,meteohub,2013-03-01 07:53:00,
2013-02-28 23:58:00,55.2,51.4,30.45,North,0,15.0,19.0,87,0.00,,,0.09,meteohub,2013-03-01 07:58:00,